createdAt,value
2022-12-17T00:01:05.481Z,53.27
2022-12-17T00:03:52.019Z,48.67
2022-12-17T00:06:38.378Z,49.17
2022-12-17T00:09:24.495Z,51.00
2022-12-17T00:12:10.986Z,51.40
2022-12-17T00:14:56.789Z,49.57
2022-12-17T00:17:42.860Z,48.97
2022-12-17T00:20:29.181Z,53.30
2022-12-17T00:23:22.413Z,52.17
2022-12-17T00:26:12.647Z,53.20
2022-12-17T00:28:59.128Z,53.43
2022-12-17T00:31:48.639Z,53.80
2022-12-17T00:34:34.594Z,53.03
2022-12-17T00:37:20.763Z,51.07
2022-12-17T00:40:07.119Z,51.43
2022-12-17T00:42:53.259Z,53.13
2022-12-17T00:45:42.289Z,53.60
2022-12-17T00:48:28.001Z,52.80
2022-12-17T00:51:14.714Z,52.30
2022-12-17T00:54:00.828Z,55.27
2022-12-17T00:56:46.836Z,50.87
2022-12-17T00:59:32.958Z,51.67
2022-12-17T01:02:19.070Z,53.07
2022-12-17T01:05:05.357Z,53.27
2022-12-17T01:07:51.316Z,52.20
2022-12-17T01:10:37.887Z,51.43
2022-12-17T01:13:24.113Z,54.10
2022-12-17T01:16:10.425Z,52.00
2022-12-17T01:18:57.227Z,56.23
2022-12-17T01:21:43.315Z,51.23
2022-12-17T01:24:29.175Z,53.10
2022-12-17T01:27:15.006Z,55.30
2022-12-17T01:30:00.893Z,52.73
2022-12-17T01:32:46.853Z,51.53
2022-12-17T01:35:32.727Z,51.47
2022-12-17T01:38:18.527Z,53.97
2022-12-17T01:41:04.506Z,56.47
2022-12-17T01:43:51.519Z,56.40
2022-12-17T01:46:37.908Z,52.40
2022-12-17T01:49:24.190Z,57.07
2022-12-17T01:52:11.146Z,56.97
2022-12-17T01:55:05.294Z,58.97
2022-12-17T01:57:51.359Z,53.23
2022-12-17T02:00:38.014Z,57.07
2022-12-17T02:03:41.358Z,58.83
2022-12-17T02:06:44.131Z,57.60
2022-12-17T02:09:34.354Z,54.03
2022-12-17T02:12:29.299Z,58.17
2022-12-17T02:15:15.265Z,52.63
2022-12-17T02:18:02.972Z,55.90
2022-12-17T02:20:51.384Z,55.30
2022-12-17T02:23:56.680Z,55.07
2022-12-17T02:26:54.856Z,53.93
2022-12-17T02:29:41.979Z,58.13
2022-12-17T02:32:28.315Z,54.83
2022-12-17T02:35:14.458Z,56.00
2022-12-17T02:38:05.677Z,54.57
2022-12-17T02:40:54.466Z,58.50
2022-12-17T02:43:44.768Z,55.33
2022-12-17T02:46:31.797Z,61.70
2022-12-17T02:49:19.117Z,57.77
2022-12-17T02:55:10.941Z,60.57
2022-12-17T02:57:56.973Z,58.70
2022-12-17T03:00:46.676Z,60.27
2022-12-17T03:03:32.653Z,56.20
2022-12-17T03:06:18.878Z,61.33
2022-12-17T03:09:05.631Z,58.63
2022-12-17T03:14:59.615Z,58.00
2022-12-17T03:17:45.669Z,60.33
2022-12-17T03:20:31.574Z,60.53
2022-12-17T03:23:21.569Z,56.30
2022-12-17T03:26:07.954Z,59.83
2022-12-17T03:28:54.260Z,58.23
2022-12-17T03:31:40.605Z,60.97
2022-12-17T03:34:27.133Z,59.40
2022-12-17T03:37:13.350Z,59.93
2022-12-17T03:39:59.137Z,58.67
2022-12-17T03:42:45.459Z,56.53
2022-12-17T03:45:31.551Z,58.43
2022-12-17T03:48:27.369Z,66.33
2022-12-17T03:51:13.815Z,57.90
2022-12-17T03:54:00.106Z,60.53
2022-12-17T03:56:47.116Z,59.10
2022-12-17T03:59:33.356Z,62.23
2022-12-17T04:02:19.782Z,61.03
2022-12-17T04:05:06.135Z,57.70
2022-12-17T04:07:52.333Z,62.90
2022-12-17T04:10:38.297Z,64.20
2022-12-17T04:13:24.960Z,58.37
2022-12-17T04:16:11.280Z,62.83
2022-12-17T04:18:57.501Z,60.63
2022-12-17T04:21:43.543Z,58.30
2022-12-17T04:24:29.410Z,58.57
2022-12-17T04:27:15.389Z,55.13
2022-12-17T04:30:01.228Z,61.77
2022-12-17T04:32:47.385Z,58.50
2022-12-17T04:35:33.470Z,60.57
2022-12-17T04:38:19.349Z,60.53
2022-12-17T04:41:05.307Z,59.90
2022-12-17T04:43:51.342Z,61.77
2022-12-17T04:46:37.454Z,65.83
2022-12-17T04:49:23.391Z,60.33
2022-12-17T04:52:09.473Z,62.17
2022-12-17T04:54:55.616Z,58.47
2022-12-17T04:57:41.658Z,60.77
2022-12-17T05:00:28.191Z,58.90
2022-12-17T05:03:14.337Z,62.03
2022-12-17T05:06:00.469Z,56.17
2022-12-17T05:08:46.911Z,56.00
2022-12-17T05:11:33.215Z,58.03
2022-12-17T05:14:19.440Z,59.07
2022-12-17T05:17:05.312Z,62.07
2022-12-17T05:19:51.256Z,54.93
2022-12-17T05:22:37.225Z,60.73
2022-12-17T05:25:23.465Z,59.47
2022-12-17T05:28:09.475Z,64.83
2022-12-17T05:30:56.466Z,58.73
2022-12-17T05:33:42.553Z,57.90
2022-12-17T05:36:28.785Z,58.27
2022-12-17T05:39:14.928Z,60.43
2022-12-17T05:42:00.841Z,59.53
2022-12-17T05:44:46.694Z,62.10
2022-12-17T05:47:32.328Z,57.83
2022-12-17T05:50:18.224Z,60.40
2022-12-17T05:53:04.490Z,60.23
2022-12-17T05:56:12.529Z,58.67
2022-12-17T05:58:59.058Z,57.50
2022-12-17T06:01:45.040Z,59.40
2022-12-17T06:04:31.199Z,61.20
2022-12-17T06:07:17.143Z,62.13
2022-12-17T06:10:03.153Z,60.00
2022-12-17T06:12:49.063Z,59.50
2022-12-17T06:15:34.941Z,63.07
2022-12-17T06:18:20.886Z,60.43
2022-12-17T06:21:07.154Z,60.20
2022-12-17T06:23:53.144Z,60.00
2022-12-17T06:26:42.412Z,59.50
2022-12-17T06:29:28.620Z,60.87
2022-12-17T06:32:14.524Z,69.13
2022-12-17T06:35:00.449Z,66.03
2022-12-17T06:37:46.230Z,67.23
2022-12-17T06:40:32.312Z,88.87
2022-12-17T06:43:18.480Z,78.23
2022-12-17T06:46:05.305Z,59.13
2022-12-17T06:48:51.426Z,61.40
2022-12-17T06:51:37.464Z,58.97
2022-12-17T06:54:23.571Z,57.13
2022-12-17T06:57:09.699Z,54.73
2022-12-17T06:59:55.387Z,57.63
2022-12-17T07:02:41.509Z,58.07
2022-12-17T07:05:27.822Z,58.23
2022-12-17T07:11:21.935Z,61.03
2022-12-17T07:14:08.204Z,63.93
2022-12-17T07:16:54.231Z,57.80
2022-12-17T07:19:40.481Z,57.07
2022-12-17T07:22:26.445Z,60.13
2022-12-17T07:25:12.215Z,61.40
2022-12-17T07:27:58.139Z,61.70
2022-12-17T07:30:44.052Z,61.10
2022-12-17T07:33:29.954Z,60.83
2022-12-17T07:36:15.927Z,58.80
2022-12-17T07:39:01.653Z,58.83
2022-12-17T07:41:47.570Z,59.37
2022-12-17T07:44:33.794Z,65.07
2022-12-17T07:47:19.462Z,63.37
2022-12-17T07:50:05.637Z,62.20
2022-12-17T07:52:51.540Z,61.00
2022-12-17T07:55:37.645Z,61.30
2022-12-17T07:58:24.481Z,63.53
2022-12-17T08:01:10.594Z,63.07
2022-12-17T08:03:56.636Z,64.87
2022-12-17T08:06:42.540Z,64.10
2022-12-17T08:09:28.382Z,62.57
2022-12-17T08:12:14.491Z,63.33
2022-12-17T08:15:00.393Z,65.70
2022-12-17T08:17:46.340Z,61.80
2022-12-17T08:20:32.764Z,64.23
2022-12-17T08:23:22.783Z,66.20
2022-12-17T08:26:08.619Z,66.00
2022-12-17T08:28:54.775Z,62.17
2022-12-17T08:31:42.810Z,64.03
2022-12-17T08:34:28.664Z,67.60
2022-12-17T08:37:14.532Z,67.83
2022-12-17T08:40:00.916Z,74.60
2022-12-17T08:42:47.077Z,69.60
2022-12-17T08:45:33.101Z,68.33
2022-12-17T08:48:26.528Z,72.63
2022-12-17T08:51:13.378Z,74.73
2022-12-17T08:53:59.515Z,76.30
2022-12-17T08:56:46.075Z,87.17
2022-12-17T08:59:32.271Z,79.50
2022-12-17T09:02:18.623Z,82.83
2022-12-17T09:05:04.615Z,83.70
2022-12-17T09:07:51.024Z,77.50
2022-12-17T09:10:37.763Z,93.20
2022-12-17T09:13:28.254Z,84.07
2022-12-17T09:16:14.579Z,90.80
2022-12-17T09:19:01.369Z,82.07
2022-12-17T09:21:50.003Z,84.97
2022-12-17T09:24:36.379Z,92.27
2022-12-17T09:27:22.108Z,94.97
2022-12-17T09:30:07.884Z,88.03
2022-12-17T09:32:53.954Z,92.37
2022-12-17T09:35:40.196Z,93.80
2022-12-17T09:38:26.226Z,87.97
2022-12-17T09:41:12.286Z,86.60
2022-12-17T09:44:14.321Z,78.20
2022-12-17T09:47:10.649Z,89.73
2022-12-17T09:49:56.856Z,81.90
2022-12-17T09:52:48.203Z,79.77
2022-12-17T09:55:40.346Z,81.70
2022-12-17T09:58:33.554Z,86.63
2022-12-17T10:01:19.595Z,72.77
2022-12-17T10:04:06.322Z,81.97
2022-12-17T10:06:52.693Z,79.50
2022-12-17T10:09:38.965Z,75.67
2022-12-17T10:12:30.638Z,77.03
2022-12-17T10:15:16.603Z,62.00
2022-12-17T10:18:02.507Z,57.17
2022-12-17T10:20:51.545Z,51.87
2022-12-17T10:23:43.628Z,55.43
2022-12-17T10:26:29.467Z,63.73
2022-12-17T10:29:22.499Z,61.97
2022-12-17T10:32:08.573Z,52.27
2022-12-17T10:35:00.497Z,55.97
2022-12-17T10:37:51.590Z,55.63
2022-12-17T10:40:48.236Z,58.93
2022-12-17T10:43:51.756Z,58.00
2022-12-17T10:46:48.590Z,59.10
2022-12-17T10:49:38.660Z,59.70
2022-12-17T10:52:34.687Z,59.00
2022-12-17T10:55:35.800Z,63.07
2022-12-17T10:58:22.491Z,63.60
2022-12-17T11:01:08.831Z,65.57
2022-12-17T11:04:06.841Z,64.93
2022-12-17T11:07:01.867Z,64.17
2022-12-17T11:10:07.005Z,66.03
2022-12-17T11:13:00.632Z,65.73
2022-12-17T11:16:02.016Z,66.77
2022-12-17T11:19:11.632Z,70.27
2022-12-17T11:22:07.175Z,66.00
2022-12-17T11:24:57.758Z,67.30
2022-12-17T11:27:46.828Z,71.57
2022-12-17T11:30:36.330Z,67.80
2022-12-17T11:33:37.961Z,70.77
2022-12-17T11:36:38.981Z,63.93
2022-12-17T11:39:36.340Z,68.47
2022-12-17T11:42:51.627Z,72.10
2022-12-17T11:46:00.675Z,69.07
2022-12-17T11:48:49.498Z,74.93
2022-12-17T11:51:37.900Z,68.00
2022-12-17T11:54:32.656Z,66.53
2022-12-17T11:57:21.498Z,63.17
2022-12-17T12:00:18.507Z,67.73
2022-12-17T12:03:15.468Z,69.17
2022-12-17T12:06:09.070Z,65.73
2022-12-17T12:08:58.362Z,73.67
2022-12-17T12:11:47.256Z,74.23
2022-12-17T12:14:36.251Z,73.90
2022-12-17T12:17:28.096Z,76.17
2022-12-17T12:20:30.015Z,73.80
2022-12-17T12:23:31.210Z,71.77
2022-12-17T12:26:20.281Z,69.43
2022-12-17T12:29:13.761Z,72.67
2022-12-17T12:32:04.523Z,73.27
2022-12-17T12:34:51.934Z,68.47
2022-12-17T12:37:39.808Z,63.60
2022-12-17T12:40:51.050Z,68.07
2022-12-17T12:43:43.009Z,65.10
2022-12-17T12:46:34.777Z,72.70
2022-12-17T12:49:28.008Z,63.93
2022-12-17T12:52:15.102Z,62.63
2022-12-17T12:55:07.155Z,59.57
2022-12-17T12:57:53.050Z,47.13
2022-12-17T13:00:54.853Z,51.30
2022-12-17T13:03:49.944Z,56.93
2022-12-17T13:06:36.619Z,54.80
2022-12-17T13:09:15.985Z,52.07
2022-12-17T13:11:48.060Z,57.83
2022-12-17T13:14:19.127Z,52.70
2022-12-17T13:16:54.788Z,55.37
2022-12-17T13:19:38.666Z,56.77
2022-12-17T13:22:21.686Z,47.00
2022-12-17T13:24:55.196Z,51.67
2022-12-17T13:27:34.857Z,49.67
2022-12-17T13:30:23.873Z,48.40
2022-12-17T13:32:51.120Z,45.90
2022-12-17T13:35:33.457Z,47.37
2022-12-17T13:38:06.072Z,46.83
2022-12-17T13:41:09.389Z,52.83
2022-12-17T13:43:46.603Z,45.47
2022-12-17T13:46:21.514Z,51.37
2022-12-17T13:48:58.005Z,41.40
2022-12-17T13:51:27.103Z,43.93
2022-12-17T13:53:59.172Z,42.67
2022-12-17T13:56:28.448Z,41.50
2022-12-17T13:58:56.493Z,39.47
2022-12-17T14:01:26.290Z,40.97
2022-12-17T14:04:06.148Z,41.87
2022-12-17T14:06:35.660Z,37.30
2022-12-17T14:09:03.468Z,39.63
2022-12-17T14:11:51.396Z,36.73
2022-12-17T14:14:31.381Z,40.87
2022-12-17T14:16:59.216Z,35.87
2022-12-17T14:19:27.345Z,37.20
2022-12-17T14:21:55.159Z,30.47
2022-12-17T14:24:27.060Z,28.90
2022-12-17T14:26:56.145Z,30.83
2022-12-17T14:29:24.870Z,37.47
2022-12-17T14:31:53.390Z,30.37
2022-12-17T14:34:20.925Z,29.00
2022-12-17T14:36:53.929Z,31.50
2022-12-17T14:39:29.897Z,31.73
2022-12-17T14:42:16.762Z,32.30
2022-12-17T14:44:51.495Z,30.77
2022-12-17T14:47:45.020Z,33.07
2022-12-17T14:50:18.171Z,32.87
2022-12-17T14:52:55.378Z,30.93
2022-12-17T14:55:31.370Z,28.77
2022-12-17T14:58:07.936Z,30.77
2022-12-17T15:00:38.053Z,29.67
2022-12-17T15:03:05.975Z,31.20
2022-12-17T15:05:33.444Z,32.87
2022-12-17T15:08:00.750Z,30.00
2022-12-17T15:10:27.927Z,30.30
2022-12-17T15:12:55.119Z,32.40
2022-12-17T15:15:22.332Z,30.07
2022-12-17T15:17:49.615Z,51.17
2022-12-17T15:20:18.258Z,38.33
2022-12-17T15:22:46.136Z,35.60
2022-12-17T15:25:18.034Z,33.03
2022-12-17T15:27:46.057Z,30.37
2022-12-17T15:30:17.428Z,30.57
2022-12-17T15:32:45.140Z,28.20
2022-12-17T15:35:13.047Z,29.30
2022-12-17T15:37:40.726Z,27.53
2022-12-17T15:40:10.784Z,28.30
2022-12-17T15:43:00.288Z,28.50
2022-12-17T15:45:31.547Z,28.83
2022-12-17T15:47:58.898Z,30.83
2022-12-17T15:50:26.498Z,28.20
2022-12-17T15:52:53.842Z,29.00
2022-12-17T15:55:21.326Z,27.97
2022-12-17T15:57:48.876Z,28.37
2022-12-17T16:00:16.297Z,29.27
2022-12-17T16:02:43.696Z,30.97
2022-12-17T16:05:11.137Z,32.83
2022-12-17T16:07:38.402Z,28.87
2022-12-17T16:10:06.308Z,28.77
2022-12-17T16:12:33.765Z,31.83
2022-12-17T16:15:01.015Z,26.17
2022-12-17T16:17:28.373Z,29.90
2022-12-17T16:19:55.658Z,28.67
2022-12-17T16:22:22.913Z,31.23
2022-12-17T16:24:52.530Z,28.13
2022-12-17T16:27:20.589Z,28.77
2022-12-17T16:29:48.212Z,27.57
2022-12-17T16:32:16.174Z,29.80
2022-12-17T16:34:43.890Z,32.27
2022-12-17T16:37:11.295Z,29.83
2022-12-17T16:39:38.510Z,32.97
2022-12-17T16:42:05.736Z,30.30
2022-12-17T16:44:32.964Z,33.50
2022-12-17T16:47:00.355Z,30.07
2022-12-17T16:49:27.646Z,32.03
2022-12-17T16:51:57.659Z,33.33
2022-12-17T16:57:11.209Z,31.33
2022-12-17T16:59:38.450Z,33.00
2022-12-17T17:02:06.029Z,31.20
2022-12-17T17:04:33.414Z,30.77
2022-12-17T17:07:00.656Z,31.30
2022-12-17T17:09:28.028Z,33.90
2022-12-17T17:11:56.907Z,34.70
2022-12-17T17:14:24.330Z,35.27
2022-12-17T17:16:51.968Z,36.00
2022-12-17T17:19:19.770Z,35.47
2022-12-17T17:21:52.463Z,31.37
2022-12-17T17:24:22.187Z,36.20
2022-12-17T17:26:50.278Z,34.37
2022-12-17T17:29:17.519Z,32.60
2022-12-17T17:34:32.121Z,33.53
2022-12-17T17:36:59.328Z,50.27
2022-12-17T17:39:27.268Z,33.60
2022-12-17T17:41:54.532Z,33.30
2022-12-17T17:44:21.856Z,34.40
2022-12-17T17:46:49.161Z,34.50
2022-12-17T17:49:16.423Z,35.10
2022-12-17T17:54:31.856Z,33.53
2022-12-17T17:56:59.168Z,29.67
2022-12-17T17:59:32.885Z,35.60
2022-12-17T18:02:02.049Z,36.30
2022-12-17T18:04:29.662Z,31.40
2022-12-17T18:09:44.105Z,28.87
2022-12-17T18:12:30.206Z,32.23
2022-12-17T18:15:13.713Z,29.93
2022-12-17T18:17:42.614Z,28.93
2022-12-17T18:20:12.151Z,30.83
2022-12-17T18:22:57.914Z,29.33
2022-12-17T18:28:09.832Z,32.30
2022-12-17T18:30:38.892Z,31.83
2022-12-17T18:33:06.184Z,32.53
2022-12-17T18:35:33.448Z,31.57
2022-12-17T18:38:00.738Z,29.23
2022-12-17T18:40:33.088Z,33.23
2022-12-17T18:43:19.382Z,204.83
2022-12-17T18:45:46.635Z,45.97
2022-12-17T18:48:13.965Z,36.20
2022-12-17T18:50:41.239Z,31.23
2022-12-17T18:53:08.506Z,32.13
2022-12-17T18:55:40.444Z,34.80
2022-12-17T18:58:10.808Z,33.73
2022-12-17T19:00:38.863Z,34.83
2022-12-17T19:03:06.605Z,34.03
2022-12-17T19:05:34.086Z,37.73
2022-12-17T19:08:01.479Z,32.27
2022-12-17T19:10:28.691Z,36.00
2022-12-17T19:12:56.628Z,36.13
2022-12-17T19:15:23.850Z,36.83
2022-12-17T19:17:51.204Z,36.70
2022-12-17T19:20:19.044Z,34.37
2022-12-17T19:22:46.362Z,34.77
2022-12-17T19:25:13.671Z,35.73
2022-12-17T19:27:40.976Z,37.97
2022-12-17T19:30:08.586Z,35.03
2022-12-17T19:32:35.939Z,37.03
2022-12-17T19:35:03.216Z,149.63
2022-12-17T19:37:30.453Z,143.67
2022-12-17T19:39:57.828Z,65.30
2022-12-17T19:42:25.302Z,37.27
2022-12-17T19:44:53.529Z,37.33
2022-12-17T19:47:21.053Z,39.10
2022-12-17T19:49:48.266Z,40.43
2022-12-17T19:52:15.497Z,38.27
2022-12-17T19:54:42.835Z,38.80
2022-12-17T19:57:10.115Z,41.13
2022-12-17T19:59:37.681Z,39.63
2022-12-17T20:02:05.079Z,35.73
2022-12-17T20:04:32.474Z,40.97
2022-12-17T20:07:00.705Z,39.57
2022-12-17T20:09:28.121Z,41.33
2022-12-17T20:11:55.392Z,36.40
2022-12-17T20:14:26.434Z,45.43
2022-12-17T20:16:55.846Z,43.23
2022-12-17T20:19:25.066Z,45.77
2022-12-17T20:21:52.840Z,44.93
2022-12-17T20:24:21.851Z,48.30
2022-12-17T20:26:51.794Z,47.80
2022-12-17T20:29:19.883Z,47.03
2022-12-17T20:31:49.853Z,45.50
2022-12-17T20:34:37.838Z,44.07
2022-12-17T20:37:05.111Z,48.27
2022-12-17T20:39:32.377Z,53.03
2022-12-17T20:41:59.623Z,52.30
2022-12-17T20:44:26.924Z,57.87
2022-12-17T20:46:54.255Z,55.83
2022-12-17T20:49:21.546Z,55.40
2022-12-17T20:51:48.801Z,51.23
2022-12-17T20:54:16.053Z,57.93
2022-12-17T20:56:43.305Z,55.53
2022-12-17T20:59:14.671Z,54.93
2022-12-17T21:01:42.272Z,58.57
2022-12-17T21:04:09.673Z,58.93
2022-12-17T21:06:38.463Z,79.43
2022-12-17T21:09:06.320Z,93.00
2022-12-17T21:11:34.495Z,61.37
2022-12-17T21:14:08.647Z,58.47
2022-12-17T21:16:37.050Z,60.40
2022-12-17T21:19:05.698Z,61.27
2022-12-17T21:21:34.425Z,58.50
2022-12-17T21:24:02.231Z,58.23
2022-12-17T21:26:31.166Z,57.87
2022-12-17T21:28:59.005Z,53.37
2022-12-17T21:31:28.136Z,50.03
2022-12-17T21:33:56.972Z,48.97
2022-12-17T21:36:27.441Z,51.47
2022-12-17T21:38:54.833Z,55.60
2022-12-17T21:41:23.695Z,55.80
2022-12-17T21:43:57.551Z,54.70
2022-12-17T21:46:28.973Z,52.83
2022-12-17T21:49:00.097Z,50.57
2022-12-17T21:51:28.246Z,52.53
2022-12-17T21:53:57.055Z,52.17
2022-12-17T21:56:24.701Z,54.50
2022-12-17T21:58:56.968Z,56.07
2022-12-17T22:01:25.527Z,51.20
2022-12-17T22:03:54.556Z,52.03
2022-12-17T22:06:23.578Z,56.70
2022-12-17T22:08:58.137Z,66.73
2022-12-17T22:11:28.176Z,66.07
2022-12-17T22:14:07.430Z,61.87
2022-12-17T22:16:42.969Z,57.53
2022-12-17T22:19:11.324Z,52.13
2022-12-17T22:21:40.467Z,54.47
2022-12-17T22:24:07.975Z,123.20
2022-12-17T22:26:35.286Z,53.57
2022-12-17T22:29:03.246Z,54.53
2022-12-17T22:31:49.231Z,50.83
2022-12-17T22:34:55.195Z,51.33
2022-12-17T22:40:26.891Z,52.57
2022-12-17T22:43:52.374Z,50.40
2022-12-17T22:44:37.805Z,49.00
2022-12-17T22:45:46.080Z,52.77
2022-12-17T22:48:13.749Z,52.37
2022-12-17T22:50:45.867Z,50.87
2022-12-17T22:53:28.987Z,51.40
2022-12-17T22:56:12.403Z,57.07
2022-12-17T22:58:43.604Z,53.27
2022-12-17T23:01:10.836Z,51.77
2022-12-17T23:03:38.578Z,58.07
2022-12-17T23:06:07.344Z,58.40
2022-12-17T23:08:34.626Z,105.17
2022-12-17T23:11:16.221Z,51.80
2022-12-17T23:13:43.494Z,61.53
2022-12-17T23:16:13.196Z,56.60
2022-12-17T23:18:41.043Z,58.20
2022-12-17T23:21:12.687Z,58.97
2022-12-17T23:23:40.518Z,63.77
2022-12-17T23:26:13.022Z,57.97
2022-12-17T23:28:41.519Z,71.80
2022-12-17T23:31:10.656Z,60.77
2022-12-17T23:33:38.816Z,59.73
2022-12-17T23:36:07.550Z,61.53
2022-12-17T23:38:34.794Z,58.97
2022-12-17T23:41:09.740Z,57.37
2022-12-17T23:43:37.468Z,52.13
2022-12-17T23:46:05.685Z,54.43
2022-12-17T23:48:51.694Z,52.43
2022-12-17T23:51:19.757Z,48.50
2022-12-17T23:53:47.615Z,51.57
2022-12-17T23:56:19.153Z,50.57
2022-12-17T23:58:46.949Z,51.13
